sensor_id;sensor_type;location;lat;lon;timestamp;P1;durP1;ratioP1;P2;durP2;ratioP2
22922;SDS011;11627;51.322;22.816;2022-10-16T00:00:44;20.77;;;12.75;;
22922;SDS011;11627;51.322;22.816;2022-10-16T00:03:11;27.02;;;13.82;;
22922;SDS011;11627;51.322;22.816;2022-10-16T00:05:37;22.05;;;13.60;;
22922;SDS011;11627;51.322;22.816;2022-10-16T00:08:08;24.75;;;13.93;;
22922;SDS011;11627;51.322;22.816;2022-10-16T00:10:38;22.85;;;13.45;;
22922;SDS011;11627;51.322;22.816;2022-10-16T00:13:04;22.00;;;13.10;;
22922;SDS011;11627;51.322;22.816;2022-10-16T00:15:32;24.20;;;13.25;;
22922;SDS011;11627;51.322;22.816;2022-10-16T00:18:01;26.45;;;14.02;;
22922;SDS011;11627;51.322;22.816;2022-10-16T00:20:27;20.67;;;13.60;;
22922;SDS011;11627;51.322;22.816;2022-10-16T00:22:53;21.08;;;13.68;;
22922;SDS011;11627;51.322;22.816;2022-10-16T00:25:19;22.02;;;13.57;;
22922;SDS011;11627;51.322;22.816;2022-10-16T00:27:45;23.83;;;12.75;;
22922;SDS011;11627;51.322;22.816;2022-10-16T00:30:10;22.63;;;13.38;;
22922;SDS011;11627;51.322;22.816;2022-10-16T00:32:36;24.65;;;13.18;;
22922;SDS011;11627;51.322;22.816;2022-10-16T00:35:02;21.33;;;13.25;;
22922;SDS011;11627;51.322;22.816;2022-10-16T00:37:28;19.77;;;13.13;;
22922;SDS011;11627;51.322;22.816;2022-10-16T00:39:54;25.15;;;13.73;;
22922;SDS011;11627;51.322;22.816;2022-10-16T00:42:20;26.52;;;13.18;;
22922;SDS011;11627;51.322;22.816;2022-10-16T00:44:51;23.75;;;13.48;;
22922;SDS011;11627;51.322;22.816;2022-10-16T00:50:33;23.27;;;13.70;;
22922;SDS011;11627;51.322;22.816;2022-10-16T00:53:00;20.23;;;12.75;;
22922;SDS011;11627;51.322;22.816;2022-10-16T00:55:26;20.45;;;13.48;;
22922;SDS011;11627;51.322;22.816;2022-10-16T00:57:54;21.38;;;13.63;;
22922;SDS011;11627;51.322;22.816;2022-10-16T01:00:24;22.70;;;13.15;;
22922;SDS011;11627;51.322;22.816;2022-10-16T01:02:55;21.10;;;13.15;;
22922;SDS011;11627;51.322;22.816;2022-10-16T01:05:23;23.58;;;13.05;;
22922;SDS011;11627;51.322;22.816;2022-10-16T01:08:01;28.45;;;14.90;;
22922;SDS011;11627;51.322;22.816;2022-10-16T01:11:01;27.00;;;15.07;;
22922;SDS011;11627;51.322;22.816;2022-10-16T01:13:43;22.15;;;13.70;;
22922;SDS011;11627;51.322;22.816;2022-10-16T01:16:26;22.23;;;13.95;;
22922;SDS011;11627;51.322;22.816;2022-10-16T01:19:14;22.15;;;13.55;;
22922;SDS011;11627;51.322;22.816;2022-10-16T01:21:51;21.45;;;12.90;;
22922;SDS011;11627;51.322;22.816;2022-10-16T01:32:50;24.45;;;13.30;;
22922;SDS011;11627;51.322;22.816;2022-10-16T01:35:17;25.45;;;14.18;;
22922;SDS011;11627;51.322;22.816;2022-10-16T01:37:46;23.55;;;14.25;;
22922;SDS011;11627;51.322;22.816;2022-10-16T01:40:16;27.27;;;13.00;;
22922;SDS011;11627;51.322;22.816;2022-10-16T01:42:46;22.00;;;14.07;;
22922;SDS011;11627;51.322;22.816;2022-10-16T01:45:18;23.73;;;13.55;;
22922;SDS011;11627;51.322;22.816;2022-10-16T01:47:45;23.55;;;13.40;;
22922;SDS011;11627;51.322;22.816;2022-10-16T01:50:12;23.58;;;12.93;;
22922;SDS011;11627;51.322;22.816;2022-10-16T01:52:42;22.92;;;13.93;;
22922;SDS011;11627;51.322;22.816;2022-10-16T01:55:10;25.52;;;13.93;;
22922;SDS011;11627;51.322;22.816;2022-10-16T01:57:39;21.73;;;13.00;;
22922;SDS011;11627;51.322;22.816;2022-10-16T02:00:11;25.42;;;13.40;;
22922;SDS011;11627;51.322;22.816;2022-10-16T02:02:40;21.10;;;12.73;;
22922;SDS011;11627;51.322;22.816;2022-10-16T02:05:17;23.00;;;12.95;;
22922;SDS011;11627;51.322;22.816;2022-10-16T02:07:52;26.60;;;13.25;;
22922;SDS011;11627;51.322;22.816;2022-10-16T02:10:18;25.13;;;13.95;;
22922;SDS011;11627;51.322;22.816;2022-10-16T02:12:45;21.58;;;13.02;;
22922;SDS011;11627;51.322;22.816;2022-10-16T02:15:15;22.52;;;13.10;;
22922;SDS011;11627;51.322;22.816;2022-10-16T02:17:41;21.17;;;13.02;;
22922;SDS011;11627;51.322;22.816;2022-10-16T02:20:07;23.08;;;13.80;;
22922;SDS011;11627;51.322;22.816;2022-10-16T02:22:34;22.80;;;13.10;;
22922;SDS011;11627;51.322;22.816;2022-10-16T02:25:12;23.10;;;13.13;;
22922;SDS011;11627;51.322;22.816;2022-10-16T02:27:46;21.83;;;13.15;;
22922;SDS011;11627;51.322;22.816;2022-10-16T02:30:41;21.08;;;12.85;;
22922;SDS011;11627;51.322;22.816;2022-10-16T02:33:13;21.55;;;12.82;;
22922;SDS011;11627;51.322;22.816;2022-10-16T02:35:40;21.30;;;13.35;;
22922;SDS011;11627;51.322;22.816;2022-10-16T02:38:08;21.23;;;13.15;;
22922;SDS011;11627;51.322;22.816;2022-10-16T02:40:34;23.23;;;13.75;;
22922;SDS011;11627;51.322;22.816;2022-10-16T02:43:02;23.25;;;13.23;;
22922;SDS011;11627;51.322;22.816;2022-10-16T02:45:29;23.48;;;12.90;;
22922;SDS011;11627;51.322;22.816;2022-10-16T02:47:55;23.23;;;12.93;;
22922;SDS011;11627;51.322;22.816;2022-10-16T02:50:20;21.77;;;12.70;;
22922;SDS011;11627;51.322;22.816;2022-10-16T02:52:46;22.88;;;13.35;;
22922;SDS011;11627;51.322;22.816;2022-10-16T02:55:12;23.35;;;13.30;;
22922;SDS011;11627;51.322;22.816;2022-10-16T02:57:38;25.10;;;13.48;;
22922;SDS011;11627;51.322;22.816;2022-10-16T03:00:05;21.42;;;12.82;;
22922;SDS011;11627;51.322;22.816;2022-10-16T03:02:35;22.55;;;13.15;;
22922;SDS011;11627;51.322;22.816;2022-10-16T03:05:00;21.35;;;13.38;;
22922;SDS011;11627;51.322;22.816;2022-10-16T03:07:26;23.45;;;13.57;;
22922;SDS011;11627;51.322;22.816;2022-10-16T03:09:52;25.73;;;13.30;;
22922;SDS011;11627;51.322;22.816;2022-10-16T03:12:19;21.48;;;12.70;;
22922;SDS011;11627;51.322;22.816;2022-10-16T03:14:45;26.73;;;14.23;;
22922;SDS011;11627;51.322;22.816;2022-10-16T03:17:10;20.95;;;12.63;;
22922;SDS011;11627;51.322;22.816;2022-10-16T03:19:38;22.55;;;13.05;;
22922;SDS011;11627;51.322;22.816;2022-10-16T03:22:04;22.67;;;12.60;;
22922;SDS011;11627;51.322;22.816;2022-10-16T03:24:29;21.00;;;12.88;;
22922;SDS011;11627;51.322;22.816;2022-10-16T03:26:55;22.10;;;12.85;;
22922;SDS011;11627;51.322;22.816;2022-10-16T03:29:22;21.10;;;13.20;;
22922;SDS011;11627;51.322;22.816;2022-10-16T03:31:48;19.85;;;13.35;;
22922;SDS011;11627;51.322;22.816;2022-10-16T03:34:14;23.38;;;12.93;;
22922;SDS011;11627;51.322;22.816;2022-10-16T03:36:40;22.25;;;12.85;;
22922;SDS011;11627;51.322;22.816;2022-10-16T03:39:06;21.77;;;12.55;;
22922;SDS011;11627;51.322;22.816;2022-10-16T03:41:32;21.42;;;12.25;;
22922;SDS011;11627;51.322;22.816;2022-10-16T03:43:58;20.35;;;12.52;;
22922;SDS011;11627;51.322;22.816;2022-10-16T03:46:24;22.55;;;13.60;;
22922;SDS011;11627;51.322;22.816;2022-10-16T03:48:49;21.25;;;12.82;;
22922;SDS011;11627;51.322;22.816;2022-10-16T03:51:15;24.17;;;13.18;;
22922;SDS011;11627;51.322;22.816;2022-10-16T03:53:40;21.05;;;12.98;;
22922;SDS011;11627;51.322;22.816;2022-10-16T03:56:06;19.92;;;12.63;;
22922;SDS011;11627;51.322;22.816;2022-10-16T03:58:32;21.75;;;13.40;;
22922;SDS011;11627;51.322;22.816;2022-10-16T04:00:58;21.63;;;12.90;;
22922;SDS011;11627;51.322;22.816;2022-10-16T04:03:24;24.88;;;12.85;;
22922;SDS011;11627;51.322;22.816;2022-10-16T04:05:50;21.70;;;13.32;;
22922;SDS011;11627;51.322;22.816;2022-10-16T04:08:16;20.42;;;13.00;;
22922;SDS011;11627;51.322;22.816;2022-10-16T04:10:43;22.20;;;12.85;;
22922;SDS011;11627;51.322;22.816;2022-10-16T04:13:09;20.80;;;13.52;;
22922;SDS011;11627;51.322;22.816;2022-10-16T04:15:35;22.90;;;13.20;;
22922;SDS011;11627;51.322;22.816;2022-10-16T04:18:01;20.02;;;12.95;;
22922;SDS011;11627;51.322;22.816;2022-10-16T04:20:26;28.83;;;14.20;;
22922;SDS011;11627;51.322;22.816;2022-10-16T04:22:52;23.67;;;13.43;;
22922;SDS011;11627;51.322;22.816;2022-10-16T04:25:18;21.48;;;14.07;;
22922;SDS011;11627;51.322;22.816;2022-10-16T04:27:44;23.13;;;13.13;;
22922;SDS011;11627;51.322;22.816;2022-10-16T04:30:09;24.13;;;13.95;;
22922;SDS011;11627;51.322;22.816;2022-10-16T04:32:35;21.42;;;13.82;;
22922;SDS011;11627;51.322;22.816;2022-10-16T04:35:01;29.80;;;13.73;;
22922;SDS011;11627;51.322;22.816;2022-10-16T04:37:27;24.83;;;13.73;;
22922;SDS011;11627;51.322;22.816;2022-10-16T04:39:53;22.73;;;14.25;;
22922;SDS011;11627;51.322;22.816;2022-10-16T04:42:19;21.33;;;13.23;;
22922;SDS011;11627;51.322;22.816;2022-10-16T04:44:45;23.40;;;13.70;;
22922;SDS011;11627;51.322;22.816;2022-10-16T04:47:12;22.80;;;12.68;;
22922;SDS011;11627;51.322;22.816;2022-10-16T04:49:38;24.30;;;13.45;;
22922;SDS011;11627;51.322;22.816;2022-10-16T04:52:04;22.50;;;13.60;;
22922;SDS011;11627;51.322;22.816;2022-10-16T04:54:29;22.52;;;13.25;;
22922;SDS011;11627;51.322;22.816;2022-10-16T04:56:55;27.08;;;14.27;;
22922;SDS011;11627;51.322;22.816;2022-10-16T04:59:21;24.40;;;13.88;;
22922;SDS011;11627;51.322;22.816;2022-10-16T05:01:47;23.55;;;14.00;;
22922;SDS011;11627;51.322;22.816;2022-10-16T05:04:13;23.70;;;13.35;;
22922;SDS011;11627;51.322;22.816;2022-10-16T05:06:40;20.40;;;12.75;;
22922;SDS011;11627;51.322;22.816;2022-10-16T05:09:07;23.85;;;14.40;;
22922;SDS011;11627;51.322;22.816;2022-10-16T05:11:33;23.30;;;13.00;;
22922;SDS011;11627;51.322;22.816;2022-10-16T05:13:59;21.63;;;12.95;;
22922;SDS011;11627;51.322;22.816;2022-10-16T05:16:25;24.85;;;14.07;;
22922;SDS011;11627;51.322;22.816;2022-10-16T05:18:52;22.08;;;13.95;;
22922;SDS011;11627;51.322;22.816;2022-10-16T05:21:18;26.63;;;14.88;;
22922;SDS011;11627;51.322;22.816;2022-10-16T05:23:44;24.05;;;14.18;;
22922;SDS011;11627;51.322;22.816;2022-10-16T05:26:10;23.30;;;13.48;;
22922;SDS011;11627;51.322;22.816;2022-10-16T05:28:35;23.85;;;13.63;;
22922;SDS011;11627;51.322;22.816;2022-10-16T05:31:07;26.13;;;13.93;;
22922;SDS011;11627;51.322;22.816;2022-10-16T05:33:34;22.40;;;13.55;;
22922;SDS011;11627;51.322;22.816;2022-10-16T05:36:03;20.90;;;13.38;;
22922;SDS011;11627;51.322;22.816;2022-10-16T05:38:31;22.48;;;13.27;;
22922;SDS011;11627;51.322;22.816;2022-10-16T05:40:56;22.67;;;13.15;;
22922;SDS011;11627;51.322;22.816;2022-10-16T05:43:23;21.08;;;13.55;;
22922;SDS011;11627;51.322;22.816;2022-10-16T05:45:58;24.48;;;13.80;;
22922;SDS011;11627;51.322;22.816;2022-10-16T05:48:33;20.08;;;13.35;;
22922;SDS011;11627;51.322;22.816;2022-10-16T05:51:00;23.55;;;13.10;;
22922;SDS011;11627;51.322;22.816;2022-10-16T05:53:31;19.83;;;12.95;;
22922;SDS011;11627;51.322;22.816;2022-10-16T05:55:58;20.65;;;13.13;;
22922;SDS011;11627;51.322;22.816;2022-10-16T05:58:25;23.02;;;13.10;;
22922;SDS011;11627;51.322;22.816;2022-10-16T06:00:57;24.95;;;13.50;;
22922;SDS011;11627;51.322;22.816;2022-10-16T06:03:27;21.45;;;13.15;;
22922;SDS011;11627;51.322;22.816;2022-10-16T06:05:53;21.77;;;13.27;;
22922;SDS011;11627;51.322;22.816;2022-10-16T06:08:20;19.75;;;12.65;;
22922;SDS011;11627;51.322;22.816;2022-10-16T06:10:47;22.65;;;13.35;;
22922;SDS011;11627;51.322;22.816;2022-10-16T06:13:13;26.52;;;14.20;;
22922;SDS011;11627;51.322;22.816;2022-10-16T06:15:39;22.55;;;13.32;;
22922;SDS011;11627;51.322;22.816;2022-10-16T06:18:07;24.27;;;13.68;;
22922;SDS011;11627;51.322;22.816;2022-10-16T06:20:33;21.67;;;13.00;;
22922;SDS011;11627;51.322;22.816;2022-10-16T06:22:59;21.20;;;12.77;;
22922;SDS011;11627;51.322;22.816;2022-10-16T06:25:25;23.98;;;13.63;;
22922;SDS011;11627;51.322;22.816;2022-10-16T06:27:51;20.42;;;12.68;;
22922;SDS011;11627;51.322;22.816;2022-10-16T06:30:17;23.27;;;13.15;;
22922;SDS011;11627;51.322;22.816;2022-10-16T06:32:42;19.42;;;12.63;;
22922;SDS011;11627;51.322;22.816;2022-10-16T06:35:08;27.05;;;13.18;;
22922;SDS011;11627;51.322;22.816;2022-10-16T06:37:34;21.70;;;13.13;;
22922;SDS011;11627;51.322;22.816;2022-10-16T06:39:59;24.02;;;13.02;;
22922;SDS011;11627;51.322;22.816;2022-10-16T06:42:25;23.00;;;13.23;;
22922;SDS011;11627;51.322;22.816;2022-10-16T06:44:51;21.42;;;13.25;;
22922;SDS011;11627;51.322;22.816;2022-10-16T06:47:18;22.23;;;13.55;;
22922;SDS011;11627;51.322;22.816;2022-10-16T06:49:44;22.02;;;13.18;;
22922;SDS011;11627;51.322;22.816;2022-10-16T06:52:10;20.17;;;12.05;;
22922;SDS011;11627;51.322;22.816;2022-10-16T06:54:35;21.85;;;14.02;;
22922;SDS011;11627;51.322;22.816;2022-10-16T06:57:01;19.65;;;12.23;;
22922;SDS011;11627;51.322;22.816;2022-10-16T06:59:27;21.35;;;12.98;;
22922;SDS011;11627;51.322;22.816;2022-10-16T07:01:53;20.05;;;12.80;;
22922;SDS011;11627;51.322;22.816;2022-10-16T07:04:18;20.40;;;13.25;;
22922;SDS011;11627;51.322;22.816;2022-10-16T07:06:44;19.73;;;13.23;;
22922;SDS011;11627;51.322;22.816;2022-10-16T07:09:10;21.67;;;12.82;;
22922;SDS011;11627;51.322;22.816;2022-10-16T07:11:37;20.85;;;13.18;;
22922;SDS011;11627;51.322;22.816;2022-10-16T07:14:03;24.48;;;14.02;;
22922;SDS011;11627;51.322;22.816;2022-10-16T07:16:30;24.02;;;13.65;;
22922;SDS011;11627;51.322;22.816;2022-10-16T07:18:58;23.48;;;14.65;;
22922;SDS011;11627;51.322;22.816;2022-10-16T07:21:26;23.77;;;15.23;;
22922;SDS011;11627;51.322;22.816;2022-10-16T07:24:00;26.63;;;16.25;;
22922;SDS011;11627;51.322;22.816;2022-10-16T07:26:27;24.02;;;15.35;;
22922;SDS011;11627;51.322;22.816;2022-10-16T07:28:54;20.92;;;13.43;;
22922;SDS011;11627;51.322;22.816;2022-10-16T07:31:22;27.35;;;14.20;;
22922;SDS011;11627;51.322;22.816;2022-10-16T07:33:48;24.27;;;14.02;;
22922;SDS011;11627;51.322;22.816;2022-10-16T07:36:15;23.90;;;14.20;;
22922;SDS011;11627;51.322;22.816;2022-10-16T07:38:42;22.83;;;13.05;;
22922;SDS011;11627;51.322;22.816;2022-10-16T07:41:09;23.05;;;13.88;;
22922;SDS011;11627;51.322;22.816;2022-10-16T07:43:37;26.65;;;15.25;;
22922;SDS011;11627;51.322;22.816;2022-10-16T07:46:03;23.85;;;14.52;;
22922;SDS011;11627;51.322;22.816;2022-10-16T07:48:30;22.80;;;14.82;;
22922;SDS011;11627;51.322;22.816;2022-10-16T07:51:01;23.67;;;14.45;;
22922;SDS011;11627;51.322;22.816;2022-10-16T07:53:28;21.92;;;12.90;;
22922;SDS011;11627;51.322;22.816;2022-10-16T07:56:00;19.77;;;13.30;;
22922;SDS011;11627;51.322;22.816;2022-10-16T07:58:28;21.50;;;13.52;;
22922;SDS011;11627;51.322;22.816;2022-10-16T08:00:55;22.65;;;14.48;;
22922;SDS011;11627;51.322;22.816;2022-10-16T08:03:21;20.70;;;13.70;;
22922;SDS011;11627;51.322;22.816;2022-10-16T08:05:47;23.27;;;13.48;;
22922;SDS011;11627;51.322;22.816;2022-10-16T08:08:13;18.20;;;12.70;;
22922;SDS011;11627;51.322;22.816;2022-10-16T08:10:40;27.08;;;14.25;;
22922;SDS011;11627;51.322;22.816;2022-10-16T08:13:06;19.77;;;13.38;;
22922;SDS011;11627;51.322;22.816;2022-10-16T08:15:32;22.67;;;13.70;;
22922;SDS011;11627;51.322;22.816;2022-10-16T08:18:02;24.38;;;14.18;;
22922;SDS011;11627;51.322;22.816;2022-10-16T08:20:29;23.40;;;14.88;;
22922;SDS011;11627;51.322;22.816;2022-10-16T08:22:56;25.88;;;14.45;;
22922;SDS011;11627;51.322;22.816;2022-10-16T08:25:23;21.17;;;13.75;;
22922;SDS011;11627;51.322;22.816;2022-10-16T08:27:49;22.73;;;14.18;;
22922;SDS011;11627;51.322;22.816;2022-10-16T08:30:16;22.25;;;14.23;;
22922;SDS011;11627;51.322;22.816;2022-10-16T08:32:42;20.27;;;13.60;;
22922;SDS011;11627;51.322;22.816;2022-10-16T08:35:09;20.38;;;13.00;;
22922;SDS011;11627;51.322;22.816;2022-10-16T08:37:36;23.80;;;13.23;;
22922;SDS011;11627;51.322;22.816;2022-10-16T08:40:03;19.55;;;11.93;;
22922;SDS011;11627;51.322;22.816;2022-10-16T08:45:20;21.05;;;12.88;;
22922;SDS011;11627;51.322;22.816;2022-10-16T08:49:06;19.52;;;12.27;;
22922;SDS011;11627;51.322;22.816;2022-10-16T08:51:01;19.00;;;11.95;;
22922;SDS011;11627;51.322;22.816;2022-10-16T08:53:49;19.48;;;12.18;;
22922;SDS011;11627;51.322;22.816;2022-10-16T08:56:18;21.90;;;12.07;;
22922;SDS011;11627;51.322;22.816;2022-10-16T08:58:46;15.85;;;11.25;;
22922;SDS011;11627;51.322;22.816;2022-10-16T09:01:14;15.35;;;10.95;;
22922;SDS011;11627;51.322;22.816;2022-10-16T09:12:21;17.92;;;11.55;;
22922;SDS011;11627;51.322;22.816;2022-10-16T09:22:27;18.40;;;10.40;;
22922;SDS011;11627;51.322;22.816;2022-10-16T09:24:55;16.63;;;10.93;;
22922;SDS011;11627;51.322;22.816;2022-10-16T09:27:25;16.15;;;10.68;;
22922;SDS011;11627;51.322;22.816;2022-10-16T09:29:51;18.30;;;11.30;;
22922;SDS011;11627;51.322;22.816;2022-10-16T09:32:18;16.25;;;10.65;;
22922;SDS011;11627;51.322;22.816;2022-10-16T09:34:47;15.18;;;10.55;;
22922;SDS011;11627;51.322;22.816;2022-10-16T09:37:19;15.98;;;10.63;;
22922;SDS011;11627;51.322;22.816;2022-10-16T09:39:51;17.38;;;10.27;;
22922;SDS011;11627;51.322;22.816;2022-10-16T09:42:28;18.02;;;10.32;;
22922;SDS011;11627;51.322;22.816;2022-10-16T09:44:56;20.08;;;10.07;;
22922;SDS011;11627;51.322;22.816;2022-10-16T09:47:23;15.63;;;9.90;;
22922;SDS011;11627;51.322;22.816;2022-10-16T09:49:54;13.68;;;10.13;;
22922;SDS011;11627;51.322;22.816;2022-10-16T09:52:23;14.57;;;9.88;;
22922;SDS011;11627;51.322;22.816;2022-10-16T09:54:56;15.73;;;10.38;;
22922;SDS011;11627;51.322;22.816;2022-10-16T09:57:24;15.27;;;10.13;;
22922;SDS011;11627;51.322;22.816;2022-10-16T09:59:54;13.95;;;9.93;;
22922;SDS011;11627;51.322;22.816;2022-10-16T10:02:31;15.30;;;9.52;;
22922;SDS011;11627;51.322;22.816;2022-10-16T10:05:00;14.27;;;9.90;;
22922;SDS011;11627;51.322;22.816;2022-10-16T10:07:28;13.93;;;9.55;;
22922;SDS011;11627;51.322;22.816;2022-10-16T10:10:00;14.27;;;10.20;;
22922;SDS011;11627;51.322;22.816;2022-10-16T10:12:28;14.25;;;10.02;;
22922;SDS011;11627;51.322;22.816;2022-10-16T10:15:06;14.88;;;9.38;;
22922;SDS011;11627;51.322;22.816;2022-10-16T10:17:44;16.48;;;10.00;;
22922;SDS011;11627;51.322;22.816;2022-10-16T10:22:55;21.83;;;10.15;;
22922;SDS011;11627;51.322;22.816;2022-10-16T10:26:06;16.27;;;10.40;;
22922;SDS011;11627;51.322;22.816;2022-10-16T10:38:56;12.38;;;9.98;;
22922;SDS011;11627;51.322;22.816;2022-10-16T10:46:56;14.30;;;9.95;;
22922;SDS011;11627;51.322;22.816;2022-10-16T10:49:30;14.65;;;9.90;;
22922;SDS011;11627;51.322;22.816;2022-10-16T10:57:52;17.77;;;10.45;;
22922;SDS011;11627;51.322;22.816;2022-10-16T11:00:26;19.92;;;10.25;;
22922;SDS011;11627;51.322;22.816;2022-10-16T11:08:19;17.17;;;10.38;;
22922;SDS011;11627;51.322;22.816;2022-10-16T11:13:32;18.05;;;10.38;;
22922;SDS011;11627;51.322;22.816;2022-10-16T11:17:01;15.60;;;9.45;;
22922;SDS011;11627;51.322;22.816;2022-10-16T11:22:33;16.15;;;9.98;;
22922;SDS011;11627;51.322;22.816;2022-10-16T11:27:49;13.48;;;9.35;;
22922;SDS011;11627;51.322;22.816;2022-10-16T11:30:20;16.02;;;9.75;;
22922;SDS011;11627;51.322;22.816;2022-10-16T11:32:57;13.90;;;9.70;;
22922;SDS011;11627;51.322;22.816;2022-10-16T11:35:39;16.38;;;9.73;;
22922;SDS011;11627;51.322;22.816;2022-10-16T11:40:45;12.85;;;9.52;;
22922;SDS011;11627;51.322;22.816;2022-10-16T11:45:55;13.80;;;9.50;;
22922;SDS011;11627;51.322;22.816;2022-10-16T11:48:32;14.55;;;9.05;;
22922;SDS011;11627;51.322;22.816;2022-10-16T11:56:45;13.48;;;9.05;;
22922;SDS011;11627;51.322;22.816;2022-10-16T11:59:21;13.13;;;9.40;;
22922;SDS011;11627;51.322;22.816;2022-10-16T12:04:52;17.95;;;9.73;;
22922;SDS011;11627;51.322;22.816;2022-10-16T12:08:06;12.73;;;9.77;;
22922;SDS011;11627;51.322;22.816;2022-10-16T12:10:27;18.17;;;9.40;;
22922;SDS011;11627;51.322;22.816;2022-10-16T12:12:54;17.05;;;10.02;;
22922;SDS011;11627;51.322;22.816;2022-10-16T12:15:23;16.40;;;9.85;;
22922;SDS011;11627;51.322;22.816;2022-10-16T12:17:53;17.48;;;9.50;;
22922;SDS011;11627;51.322;22.816;2022-10-16T12:20:24;15.38;;;10.10;;
22922;SDS011;11627;51.322;22.816;2022-10-16T12:23:01;15.02;;;9.43;;
22922;SDS011;11627;51.322;22.816;2022-10-16T12:25:39;16.85;;;10.32;;
22922;SDS011;11627;51.322;22.816;2022-10-16T12:30:40;15.57;;;10.15;;
22922;SDS011;11627;51.322;22.816;2022-10-16T12:33:24;17.25;;;10.27;;
22922;SDS011;11627;51.322;22.816;2022-10-16T12:35:52;23.70;;;11.48;;
22922;SDS011;11627;51.322;22.816;2022-10-16T12:38:19;16.08;;;10.95;;
22922;SDS011;11627;51.322;22.816;2022-10-16T12:41:05;15.82;;;10.30;;
22922;SDS011;11627;51.322;22.816;2022-10-16T12:43:51;15.82;;;10.52;;
22922;SDS011;11627;51.322;22.816;2022-10-16T12:48:43;17.95;;;11.88;;
22922;SDS011;11627;51.322;22.816;2022-10-16T12:54:09;19.30;;;10.98;;
22922;SDS011;11627;51.322;22.816;2022-10-16T13:08:05;16.50;;;9.90;;
22922;SDS011;11627;51.322;22.816;2022-10-16T13:10:34;16.38;;;9.98;;
22922;SDS011;11627;51.322;22.816;2022-10-16T13:16:21;19.17;;;10.90;;
22922;SDS011;11627;51.322;22.816;2022-10-16T13:27:41;17.90;;;10.45;;
22922;SDS011;11627;51.322;22.816;2022-10-16T13:30:16;17.13;;;10.63;;
22922;SDS011;11627;51.322;22.816;2022-10-16T13:33:00;15.23;;;10.35;;
22922;SDS011;11627;51.322;22.816;2022-10-16T13:35:30;17.27;;;10.20;;
22922;SDS011;11627;51.322;22.816;2022-10-16T13:38:14;20.65;;;10.35;;
22922;SDS011;11627;51.322;22.816;2022-10-16T13:40:48;13.95;;;9.52;;
22922;SDS011;11627;51.322;22.816;2022-10-16T13:43:22;13.68;;;9.65;;
22922;SDS011;11627;51.322;22.816;2022-10-16T13:46:02;14.68;;;9.27;;
22922;SDS011;11627;51.322;22.816;2022-10-16T13:48:30;17.00;;;9.43;;
22922;SDS011;11627;51.322;22.816;2022-10-16T13:51:00;13.63;;;9.57;;
22922;SDS011;11627;51.322;22.816;2022-10-16T13:53:40;17.08;;;9.88;;
22922;SDS011;11627;51.322;22.816;2022-10-16T13:56:07;14.65;;;9.93;;
22922;SDS011;11627;51.322;22.816;2022-10-16T13:58:37;11.80;;;9.32;;
22922;SDS011;11627;51.322;22.816;2022-10-16T14:01:04;15.38;;;11.13;;
22922;SDS011;11627;51.322;22.816;2022-10-16T14:03:37;15.25;;;10.82;;
22922;SDS011;11627;51.322;22.816;2022-10-16T14:06:03;17.40;;;9.63;;
22922;SDS011;11627;51.322;22.816;2022-10-16T14:08:33;15.50;;;10.30;;
22922;SDS011;11627;51.322;22.816;2022-10-16T14:10:59;16.83;;;10.38;;
22922;SDS011;11627;51.322;22.816;2022-10-16T14:13:31;15.48;;;10.23;;
22922;SDS011;11627;51.322;22.816;2022-10-16T14:16:15;14.60;;;10.77;;
22922;SDS011;11627;51.322;22.816;2022-10-16T14:18:45;14.32;;;10.63;;
22922;SDS011;11627;51.322;22.816;2022-10-16T14:21:18;17.55;;;11.80;;
22922;SDS011;11627;51.322;22.816;2022-10-16T14:23:44;17.45;;;11.07;;
22922;SDS011;11627;51.322;22.816;2022-10-16T14:28:38;13.75;;;10.05;;
22922;SDS011;11627;51.322;22.816;2022-10-16T14:31:25;17.08;;;10.90;;
22922;SDS011;11627;51.322;22.816;2022-10-16T14:33:53;15.07;;;10.75;;
22922;SDS011;11627;51.322;22.816;2022-10-16T14:36:19;19.80;;;11.38;;
22922;SDS011;11627;51.322;22.816;2022-10-16T14:39:03;20.60;;;11.85;;
22922;SDS011;11627;51.322;22.816;2022-10-16T14:41:32;16.77;;;11.10;;
22922;SDS011;11627;51.322;22.816;2022-10-16T14:44:09;20.80;;;11.00;;
22922;SDS011;11627;51.322;22.816;2022-10-16T14:46:37;18.65;;;10.32;;
22922;SDS011;11627;51.322;22.816;2022-10-16T14:49:13;17.40;;;10.50;;
22922;SDS011;11627;51.322;22.816;2022-10-16T14:51:47;15.43;;;10.65;;
22922;SDS011;11627;51.322;22.816;2022-10-16T14:54:13;17.17;;;10.38;;
22922;SDS011;11627;51.322;22.816;2022-10-16T14:56:46;16.63;;;11.15;;
22922;SDS011;11627;51.322;22.816;2022-10-16T14:59:22;18.13;;;10.18;;
22922;SDS011;11627;51.322;22.816;2022-10-16T15:01:52;17.02;;;11.00;;
22922;SDS011;11627;51.322;22.816;2022-10-16T15:04:18;18.80;;;11.50;;
22922;SDS011;11627;51.322;22.816;2022-10-16T15:06:44;18.58;;;11.50;;
22922;SDS011;11627;51.322;22.816;2022-10-16T15:09:09;19.13;;;11.32;;
22922;SDS011;11627;51.322;22.816;2022-10-16T15:11:37;21.60;;;12.35;;
22922;SDS011;11627;51.322;22.816;2022-10-16T15:14:03;21.98;;;13.40;;
22922;SDS011;11627;51.322;22.816;2022-10-16T15:16:29;27.65;;;16.63;;
22922;SDS011;11627;51.322;22.816;2022-10-16T15:18:56;30.52;;;16.75;;
22922;SDS011;11627;51.322;22.816;2022-10-16T15:21:24;33.25;;;17.17;;
22922;SDS011;11627;51.322;22.816;2022-10-16T15:23:50;32.28;;;16.95;;
22922;SDS011;11627;51.322;22.816;2022-10-16T15:26:16;28.85;;;15.18;;
22922;SDS011;11627;51.322;22.816;2022-10-16T15:28:42;22.90;;;13.05;;
22922;SDS011;11627;51.322;22.816;2022-10-16T15:31:07;25.70;;;12.90;;
22922;SDS011;11627;51.322;22.816;2022-10-16T15:33:33;19.30;;;11.52;;
22922;SDS011;11627;51.322;22.816;2022-10-16T15:36:00;17.80;;;11.43;;
22922;SDS011;11627;51.322;22.816;2022-10-16T15:38:30;17.63;;;10.73;;
22922;SDS011;11627;51.322;22.816;2022-10-16T15:40:57;24.83;;;12.73;;
22922;SDS011;11627;51.322;22.816;2022-10-16T15:43:22;17.50;;;10.52;;
22922;SDS011;11627;51.322;22.816;2022-10-16T15:45:58;16.58;;;10.48;;
22922;SDS011;11627;51.322;22.816;2022-10-16T15:48:30;17.98;;;10.25;;
22922;SDS011;11627;51.322;22.816;2022-10-16T15:50:56;19.10;;;11.43;;
22922;SDS011;11627;51.322;22.816;2022-10-16T15:53:22;19.88;;;11.85;;
22922;SDS011;11627;51.322;22.816;2022-10-16T15:55:48;16.25;;;11.27;;
22922;SDS011;11627;51.322;22.816;2022-10-16T15:58:14;19.52;;;12.10;;
22922;SDS011;11627;51.322;22.816;2022-10-16T16:00:39;19.50;;;12.18;;
22922;SDS011;11627;51.322;22.816;2022-10-16T16:03:05;36.15;;;15.40;;
22922;SDS011;11627;51.322;22.816;2022-10-16T16:05:31;30.42;;;16.15;;
22922;SDS011;11627;51.322;22.816;2022-10-16T16:07:58;33.80;;;17.52;;
22922;SDS011;11627;51.322;22.816;2022-10-16T16:10:24;38.30;;;18.35;;
22922;SDS011;11627;51.322;22.816;2022-10-16T16:12:50;36.20;;;17.85;;
22922;SDS011;11627;51.322;22.816;2022-10-16T16:15:18;33.22;;;17.75;;
22922;SDS011;11627;51.322;22.816;2022-10-16T16:17:45;30.33;;;15.95;;
22922;SDS011;11627;51.322;22.816;2022-10-16T16:20:11;22.52;;;13.40;;